Charles B. Wheeler Downtown Airport
KMKC : now visible

Airfield :











YOU CAN JOIN US ON...

 
LOGIN :

Register | Disclaimer

   EN    FR    IT 

 









Legend :    VFR   Marginal VFR   IFR   Intensive IFR   Very Intensive IFR
Visi :
Ceiling :
>= 8 km
>= 3000ft
5 to 8 km
1000 to 3000 ft
1500m to 5 km
500 to 1000 ft
800 to 1500m
200 to 500 ft
< 800m
< 200 ft
Symbols :   Thunderstorms  Fog  Heavy snow  Heavy precipitations  Wind > 20 kt






- Airport Elevation : 759 ft
- IATA code : MKC


KMKC - Charles B. Wheeler Downtown

CURRENT METAR :
  • 151754Z 00000KT 10SM CLR 11/M02 A3037 RMK AO2 SLP287 T01111022 10111 21039 58012

EXPIRED METARs :
  • 151654Z 00000KT 10SM CLR 08/M03 A3039 RMK AO2 SLP297 T00831033
  • 151554Z 00000KT 10SM CLR 05/M03 A3041 RMK AO2 SLP303 T00501028

TAF KMKC
Valid from the 15 at 18:00 until the 16 at 18:00 UTC


151736Z 1518/1618 18005KT P6SM FEW250
FM161500 15012KT P6SM SCT200



MET'MAP, your aeronautical weather chart ! - Copyright ORBIFLY December 2007 - Disclaimer

ORBIFLY MET'MAP TEAM :

Programming & Development : Alexandra Zaïnal
Concept & Development : Baudouin d'Aumeries
Co-Development & Prog : Marc-Olivier Méhu
Technical & hardware support : Manuel Goepfert

Contact : metmap@orbifly.com




SOURCES & CREDITS :

   NOAA       Earth
Advisory